Forecast Period: 

 6 am 28th February 2021 to 12 noon 28th February 2021 

Synopsis:

Atlantic High Pressure System is the dominant feature

Forecast:

Occasionally cloudy, slightly hazy and breezy; with a few showers

Weather Advisory/Warning:

None

Winds:

NE – ENE at 25 – 40 km/h (16 – 25 mph)

Sea Conditions:

Moderate in open water; east north-easterly swells (1.5 – 2.5 m)

Marine Advisory:

Exercise caution; for above normal sea-swells

Upcoming Tides:
 High: 06:03 am  07:43 pm
 Low:

****

01:44 pm

Aviation WX

[Source: ADDS]
METAR
TVSA 041140Z 05007KT 3000 SHRA SCT014 BKN070 24/22 Q1016 =
TVSA 041100Z 0412/0512 09014KT 9999 SCT018 SCT036 TEMPO 0412/0420 09015G25KT SHRA BKN014 BKN032
TAF
TVSA 041100Z 0412/0512 09014KT 9999 SCT018 SCT036 TEMPO 0412/0420 09015G25KT SHRA BKN014 BKN032 =
SR / SS: 10:18 / 22:13 UTC (Sunrise Sunset 2021-03-04)